createdAt,value
2022-11-03T00:00:34.634Z,9.36
2022-11-03T00:01:34.665Z,9.36
2022-11-03T00:02:34.684Z,9.37
2022-11-03T00:03:34.730Z,9.38
2022-11-03T00:04:34.602Z,9.38
2022-11-03T00:05:34.491Z,9.38
2022-11-03T00:06:34.588Z,9.38
2022-11-03T00:07:34.538Z,9.39
2022-11-03T00:08:34.542Z,9.39
2022-11-03T00:09:34.602Z,9.39
2022-11-03T00:10:34.516Z,9.39
2022-11-03T00:11:34.540Z,9.38
2022-11-03T00:12:34.519Z,9.38
2022-11-03T00:13:34.453Z,9.37
2022-11-03T00:14:34.464Z,9.37
2022-11-03T00:15:34.397Z,9.37
2022-11-03T00:16:34.488Z,9.36
2022-11-03T00:17:34.438Z,9.35
2022-11-03T00:18:34.421Z,9.34
2022-11-03T00:19:34.374Z,9.32
2022-11-03T00:20:34.383Z,9.31
2022-11-03T00:21:34.378Z,9.30
2022-11-03T00:22:34.321Z,9.28
2022-11-03T00:23:34.342Z,9.27
2022-11-03T00:24:34.353Z,9.26
2022-11-03T00:25:34.301Z,9.24
2022-11-03T00:26:34.373Z,9.23
2022-11-03T00:27:34.311Z,9.22
2022-11-03T00:28:34.343Z,9.22
2022-11-03T00:29:34.321Z,9.21
2022-11-03T00:30:34.288Z,9.21
2022-11-03T00:31:34.213Z,9.21
2022-11-03T00:32:34.255Z,9.20
2022-11-03T00:33:34.200Z,9.19
2022-11-03T00:34:34.139Z,9.18
2022-11-03T00:35:34.142Z,9.17
2022-11-03T00:36:34.168Z,9.15
2022-11-03T00:37:34.164Z,9.14
2022-11-03T00:38:34.164Z,9.13
2022-11-03T00:39:34.118Z,9.13
2022-11-03T00:40:34.107Z,9.14
2022-11-03T00:41:34.111Z,9.15
2022-11-03T00:42:34.192Z,9.16
2022-11-03T00:43:34.059Z,9.17
2022-11-03T00:44:34.030Z,9.18
2022-11-03T00:45:34.044Z,9.20
2022-11-03T00:46:33.992Z,9.22
2022-11-03T00:47:34.002Z,9.24
2022-11-03T00:48:34.079Z,9.26
2022-11-03T00:49:34.018Z,9.28
2022-11-03T00:50:33.972Z,9.29
2022-11-03T00:51:33.964Z,9.30
2022-11-03T00:52:33.965Z,9.30
2022-11-03T00:53:33.991Z,9.29
2022-11-03T00:54:34.026Z,9.28
2022-11-03T00:55:33.946Z,9.27
2022-11-03T00:56:33.886Z,9.26
2022-11-03T00:57:33.930Z,9.24
2022-11-03T00:58:33.934Z,9.23
2022-11-03T00:59:33.883Z,9.22
2022-11-03T01:00:33.881Z,9.21
2022-11-03T01:01:33.988Z,9.20
2022-11-03T01:02:33.836Z,9.19
2022-11-03T01:03:33.822Z,9.18
2022-11-03T01:04:33.787Z,9.17
2022-11-03T01:05:33.856Z,9.15
2022-11-03T01:06:33.795Z,9.14
2022-11-03T01:07:33.740Z,9.13
2022-11-03T01:08:33.788Z,9.13
2022-11-03T01:09:33.772Z,9.13
2022-11-03T01:10:33.717Z,9.13
2022-11-03T01:11:33.732Z,9.13
2022-11-03T01:12:33.827Z,9.13
2022-11-03T01:13:33.663Z,9.13
2022-11-03T01:14:33.643Z,9.13
2022-11-03T01:15:33.683Z,9.14
2022-11-03T01:16:33.721Z,9.14
2022-11-03T01:17:33.620Z,9.14
2022-11-03T01:18:33.653Z,9.14
2022-11-03T01:19:33.740Z,9.14
2022-11-03T01:20:33.628Z,9.13
2022-11-03T01:21:34.348Z,9.11
2022-11-03T01:22:33.526Z,9.10
2022-11-03T01:23:33.507Z,9.09
2022-11-03T01:24:33.483Z,9.07
2022-11-03T01:25:33.477Z,9.05
2022-11-03T01:26:33.460Z,9.03
2022-11-03T01:27:33.444Z,9.01
2022-11-03T01:28:33.443Z,8.98
2022-11-03T01:29:33.442Z,8.97
2022-11-03T01:30:33.437Z,8.95
2022-11-03T01:31:33.408Z,8.94
2022-11-03T01:32:33.392Z,8.93
2022-11-03T01:33:33.372Z,8.93
2022-11-03T01:34:33.369Z,8.93
2022-11-03T01:35:33.390Z,8.94
2022-11-03T01:36:33.340Z,8.94
2022-11-03T01:37:33.326Z,8.95
2022-11-03T01:38:33.318Z,8.96
2022-11-03T01:39:33.303Z,8.97
2022-11-03T01:40:33.305Z,8.98
2022-11-03T01:41:33.274Z,8.99
2022-11-03T01:42:33.272Z,8.99
2022-11-03T01:43:33.253Z,9.00
2022-11-03T01:44:33.245Z,9.00
2022-11-03T01:45:33.227Z,9.01
2022-11-03T01:46:33.243Z,9.02
2022-11-03T01:47:33.233Z,9.02
2022-11-03T01:48:33.194Z,9.02
2022-11-03T01:49:33.179Z,9.02
2022-11-03T01:50:33.176Z,9.02
2022-11-03T01:51:33.161Z,9.02
2022-11-03T01:52:33.168Z,9.03
2022-11-03T01:53:33.142Z,9.03
2022-11-03T01:54:33.126Z,9.03
2022-11-03T01:55:33.111Z,9.03
2022-11-03T01:56:33.101Z,9.02
2022-11-03T01:57:33.106Z,9.02
2022-11-03T01:58:33.075Z,9.01
2022-11-03T01:59:33.087Z,9.00
2022-11-03T02:00:33.065Z,8.99
2022-11-03T02:01:33.121Z,8.98
2022-11-03T02:02:33.085Z,8.97
2022-11-03T02:03:33.006Z,8.97
2022-11-03T02:04:33.003Z,8.97
2022-11-03T02:05:32.995Z,8.98
2022-11-03T02:06:32.972Z,8.98
2022-11-03T02:07:32.969Z,8.98
2022-11-03T02:08:32.953Z,8.98
2022-11-03T02:09:32.958Z,8.98
2022-11-03T02:10:32.947Z,8.97
2022-11-03T02:11:32.910Z,8.97
2022-11-03T02:12:32.898Z,8.96
2022-11-03T02:13:32.891Z,8.94
2022-11-03T02:14:32.894Z,8.94
2022-11-03T02:15:32.872Z,8.93
2022-11-03T02:16:32.878Z,8.92
2022-11-03T02:17:32.840Z,8.90
2022-11-03T02:18:32.822Z,8.89
2022-11-03T02:19:32.818Z,8.89
2022-11-03T02:20:32.823Z,8.89
2022-11-03T02:21:32.809Z,8.89
2022-11-03T02:22:32.779Z,8.89
2022-11-03T02:23:32.778Z,8.88
2022-11-03T02:24:32.795Z,8.88
2022-11-03T02:25:32.746Z,8.88
2022-11-03T02:26:32.742Z,8.87
2022-11-03T02:27:32.736Z,8.87
2022-11-03T02:28:32.726Z,8.87
2022-11-03T02:29:32.713Z,8.86
2022-11-03T02:30:32.704Z,8.86
2022-11-03T02:31:32.664Z,8.85
2022-11-03T02:32:32.664Z,8.84
2022-11-03T02:33:32.639Z,8.83
2022-11-03T02:34:32.638Z,8.82
2022-11-03T02:35:32.627Z,8.81
2022-11-03T02:36:32.625Z,8.81
2022-11-03T02:37:32.603Z,8.80
2022-11-03T02:38:32.582Z,8.79
2022-11-03T02:39:32.565Z,8.77
2022-11-03T02:40:32.562Z,8.76
2022-11-03T02:41:32.635Z,8.74
2022-11-03T02:42:32.546Z,8.71
2022-11-03T02:43:32.520Z,8.67
2022-11-03T02:44:32.511Z,8.62
2022-11-03T02:45:32.491Z,8.56
2022-11-03T02:46:32.486Z,8.51
2022-11-03T02:47:32.481Z,8.46
2022-11-03T02:48:32.482Z,8.42
2022-11-03T02:49:32.449Z,8.38
2022-11-03T02:50:32.437Z,8.35
2022-11-03T02:51:32.420Z,8.34
2022-11-03T02:52:32.424Z,8.34
2022-11-03T02:53:32.407Z,8.34
2022-11-03T02:54:32.395Z,8.33
2022-11-03T02:55:32.375Z,8.32
2022-11-03T02:56:32.358Z,8.30
2022-11-03T02:57:32.346Z,8.26
2022-11-03T02:58:32.344Z,8.21
2022-11-03T02:59:32.322Z,8.14
2022-11-03T03:00:32.317Z,8.08
2022-11-03T03:01:32.439Z,8.02
2022-11-03T03:02:32.355Z,7.98
2022-11-03T03:03:32.288Z,7.95
2022-11-03T03:04:32.262Z,7.92
2022-11-03T03:05:32.261Z,7.89
2022-11-03T03:06:32.251Z,7.87
2022-11-03T03:07:32.229Z,7.87
2022-11-03T03:08:32.219Z,7.88
2022-11-03T03:09:32.207Z,7.90
2022-11-03T03:10:32.195Z,7.91
2022-11-03T03:12:32.163Z,7.95
2022-11-03T03:13:32.154Z,7.96
2022-11-03T03:14:32.151Z,7.98
2022-11-03T03:15:32.123Z,8.00
2022-11-03T03:16:32.120Z,8.02
2022-11-03T03:17:32.102Z,8.04
2022-11-03T03:18:32.092Z,8.06
2022-11-03T03:19:32.114Z,8.09
2022-11-03T03:20:32.059Z,8.10
2022-11-03T03:21:32.074Z,8.12
2022-11-03T03:22:32.052Z,8.13
2022-11-03T03:23:32.029Z,8.14
2022-11-03T03:24:32.020Z,8.14
2022-11-03T03:25:32.017Z,8.15
2022-11-03T03:26:31.996Z,8.15
2022-11-03T03:27:31.974Z,8.16
2022-11-03T03:28:31.984Z,8.17
2022-11-03T03:29:31.947Z,8.18
2022-11-03T03:30:31.946Z,8.20
2022-11-03T03:31:31.963Z,8.22
2022-11-03T03:32:31.922Z,8.24
2022-11-03T03:33:31.899Z,8.26
2022-11-03T03:34:35.336Z,8.29
2022-11-03T03:35:31.878Z,8.31
2022-11-03T03:36:31.863Z,8.34
2022-11-03T03:37:31.884Z,8.36
2022-11-03T03:38:31.839Z,8.37
2022-11-03T03:39:31.818Z,8.39
2022-11-03T03:40:31.812Z,8.40
2022-11-03T03:41:31.791Z,8.41
2022-11-03T03:42:31.795Z,8.42
2022-11-03T03:43:31.781Z,8.42
2022-11-03T03:44:31.772Z,8.43
2022-11-03T03:45:31.750Z,8.44
2022-11-03T03:46:31.735Z,8.44
2022-11-03T03:47:31.714Z,8.45
2022-11-03T03:48:31.720Z,8.45
2022-11-03T03:49:31.687Z,8.45
2022-11-03T03:50:31.690Z,8.45
2022-11-03T03:51:31.663Z,8.46
2022-11-03T03:52:31.675Z,8.45
2022-11-03T03:53:31.670Z,8.44
2022-11-03T03:54:31.648Z,8.43
2022-11-03T03:55:31.630Z,8.42
2022-11-03T03:56:31.630Z,8.42
2022-11-03T03:57:31.600Z,8.41
2022-11-03T03:58:31.574Z,8.41
2022-11-03T03:59:31.567Z,8.41
2022-11-03T04:00:31.580Z,8.41
2022-11-03T04:01:31.677Z,8.41
2022-11-03T04:02:31.597Z,8.41
2022-11-03T04:03:31.522Z,8.42
2022-11-03T04:04:31.511Z,8.43
2022-11-03T04:05:31.489Z,8.43
2022-11-03T04:06:31.483Z,8.44
2022-11-03T04:07:31.471Z,8.44
2022-11-03T04:08:31.458Z,8.45
2022-11-03T04:09:31.443Z,8.45
2022-11-03T04:10:31.435Z,8.44
2022-11-03T04:11:31.416Z,8.43
2022-11-03T04:12:31.417Z,8.42
2022-11-03T04:13:31.386Z,8.42
2022-11-03T04:14:31.391Z,8.41
2022-11-03T04:15:31.365Z,8.40
2022-11-03T04:16:31.362Z,8.40
2022-11-03T04:17:31.394Z,8.39
2022-11-03T04:18:31.357Z,8.39
2022-11-03T04:19:31.309Z,8.38
2022-11-03T04:20:31.310Z,8.37
2022-11-03T04:21:31.296Z,8.36
2022-11-03T04:22:31.286Z,8.35
2022-11-03T04:23:31.265Z,8.34
2022-11-03T04:24:31.252Z,8.34
2022-11-03T04:25:31.235Z,8.33
2022-11-03T04:26:31.238Z,8.33
2022-11-03T04:27:31.221Z,8.34
2022-11-03T04:28:31.204Z,8.34
2022-11-03T04:29:31.181Z,8.35
2022-11-03T04:30:31.189Z,8.36
2022-11-03T04:31:31.159Z,8.37
2022-11-03T04:32:31.160Z,8.38
2022-11-03T04:33:31.153Z,8.38
2022-11-03T04:34:31.150Z,8.39
2022-11-03T04:35:31.120Z,8.40
2022-11-03T04:36:31.096Z,8.41
2022-11-03T04:37:31.098Z,8.41
2022-11-03T04:38:31.111Z,8.41
2022-11-03T04:39:31.135Z,8.40
2022-11-03T04:40:31.045Z,8.39
2022-11-03T04:41:31.029Z,8.38
2022-11-03T04:42:31.016Z,8.37
2022-11-03T04:43:31.040Z,8.36
2022-11-03T04:44:30.998Z,8.34
2022-11-03T04:45:30.981Z,8.32
2022-11-03T04:46:31.062Z,8.30
2022-11-03T04:47:30.975Z,8.29
2022-11-03T04:48:30.943Z,8.27
2022-11-03T04:49:30.962Z,8.25
2022-11-03T04:50:30.915Z,8.23
2022-11-03T04:51:30.909Z,8.21
2022-11-03T04:52:30.901Z,8.19
2022-11-03T04:53:30.880Z,8.17
2022-11-03T04:54:30.866Z,8.15
2022-11-03T04:55:30.851Z,8.14
2022-11-03T04:56:30.848Z,8.12
2022-11-03T04:57:30.830Z,8.10
2022-11-03T04:58:30.854Z,8.08
2022-11-03T04:59:30.808Z,8.06
2022-11-03T05:00:30.785Z,8.03
2022-11-03T05:01:30.975Z,8.00
2022-11-03T05:02:30.760Z,7.96
2022-11-03T05:03:30.777Z,7.93
2022-11-03T05:04:30.782Z,7.89
2022-11-03T05:05:30.730Z,7.86
2022-11-03T05:06:30.711Z,7.83
2022-11-03T05:07:30.704Z,7.81
2022-11-03T05:08:30.688Z,7.80
2022-11-03T05:09:30.680Z,7.79
2022-11-03T05:10:30.664Z,7.78
2022-11-03T05:11:30.660Z,7.78
2022-11-03T05:12:30.626Z,7.78
2022-11-03T05:13:30.638Z,7.78
2022-11-03T05:14:30.614Z,7.78
2022-11-03T05:15:30.624Z,7.78
2022-11-03T05:16:30.579Z,7.78
2022-11-03T05:17:30.565Z,7.78
2022-11-03T05:18:30.548Z,7.78
2022-11-03T05:19:30.547Z,7.77
2022-11-03T05:20:35.539Z,7.77
2022-11-03T05:21:30.531Z,7.77
2022-11-03T05:22:30.496Z,7.77
2022-11-03T05:23:30.511Z,7.77
2022-11-03T05:24:30.481Z,7.77
2022-11-03T05:25:30.474Z,7.76
2022-11-03T05:26:30.485Z,7.75
2022-11-03T05:27:30.461Z,7.74
2022-11-03T05:28:30.418Z,7.73
2022-11-03T05:29:30.402Z,7.73
2022-11-03T05:30:30.421Z,7.72
2022-11-03T05:31:30.392Z,7.70
2022-11-03T05:32:30.392Z,7.69
2022-11-03T05:33:30.393Z,7.67
2022-11-03T05:34:30.359Z,7.65
2022-11-03T05:35:30.333Z,7.64
2022-11-03T05:36:30.342Z,7.63
2022-11-03T05:37:31.255Z,7.63
2022-11-03T05:38:30.290Z,7.63
2022-11-03T05:39:30.286Z,7.63
2022-11-03T05:40:30.282Z,7.63
2022-11-03T05:41:30.286Z,7.64
2022-11-03T05:42:30.282Z,7.64
2022-11-03T05:43:30.229Z,7.65
2022-11-03T05:44:30.212Z,7.65
2022-11-03T05:45:30.225Z,7.65
2022-11-03T05:46:30.193Z,7.66
2022-11-03T05:47:30.201Z,7.66
2022-11-03T05:48:30.183Z,7.66
2022-11-03T05:49:30.149Z,7.66
2022-11-03T05:50:30.205Z,7.65
2022-11-03T05:51:30.126Z,7.65
2022-11-03T05:52:30.116Z,7.65
2022-11-03T05:53:30.141Z,7.64
2022-11-03T05:54:30.082Z,7.63
2022-11-03T05:55:30.101Z,7.63
2022-11-03T05:56:30.064Z,7.62
2022-11-03T05:57:30.081Z,7.62
2022-11-03T05:58:30.032Z,7.61
2022-11-03T05:59:30.027Z,7.61
2022-11-03T06:00:30.013Z,7.60
2022-11-03T06:01:30.054Z,7.60
2022-11-03T06:02:30.033Z,7.60
2022-11-03T06:03:29.969Z,7.61
2022-11-03T06:04:29.962Z,7.62
2022-11-03T06:05:29.954Z,7.64
2022-11-03T06:06:32.344Z,7.65
2022-11-03T06:07:29.932Z,7.66
2022-11-03T06:08:29.895Z,7.67
2022-11-03T06:09:29.890Z,7.66
2022-11-03T06:10:29.898Z,7.66
2022-11-03T06:11:29.869Z,7.66
2022-11-03T06:12:29.862Z,7.67
2022-11-03T06:13:29.847Z,7.68
2022-11-03T06:14:29.816Z,7.67
2022-11-03T06:15:29.805Z,7.67
2022-11-03T06:16:29.805Z,7.66
2022-11-03T06:17:29.806Z,7.65
2022-11-03T06:18:29.767Z,7.63
2022-11-03T06:19:29.767Z,7.62
2022-11-03T06:20:29.745Z,7.60
2022-11-03T06:21:29.749Z,7.57
2022-11-03T06:22:29.745Z,7.55
2022-11-03T06:23:29.737Z,7.54
2022-11-03T06:24:29.695Z,7.52
2022-11-03T06:25:29.685Z,7.50
2022-11-03T06:26:29.663Z,7.48
2022-11-03T06:27:29.697Z,7.45
2022-11-03T06:28:29.648Z,7.44
2022-11-03T06:29:29.656Z,7.43
2022-11-03T06:30:29.676Z,7.42
2022-11-03T06:31:29.609Z,7.42
2022-11-03T06:32:29.598Z,7.42
2022-11-03T06:33:29.602Z,7.42
2022-11-03T06:34:29.610Z,7.42
2022-11-03T06:35:29.550Z,7.42
2022-11-03T06:36:29.540Z,7.42
2022-11-03T06:37:29.531Z,7.43
2022-11-03T06:38:29.543Z,7.43
2022-11-03T06:39:29.495Z,7.43
2022-11-03T06:40:29.481Z,7.43
2022-11-03T06:41:29.494Z,7.42
2022-11-03T06:42:32.108Z,7.41
2022-11-03T06:43:29.459Z,7.39
2022-11-03T06:44:29.433Z,7.37
2022-11-03T06:45:29.421Z,7.36
2022-11-03T06:46:29.407Z,7.35
2022-11-03T06:47:29.404Z,7.34
2022-11-03T06:48:29.388Z,7.34
2022-11-03T06:49:29.388Z,7.34
2022-11-03T06:50:29.366Z,7.35
2022-11-03T06:51:29.350Z,7.37
2022-11-03T06:52:29.332Z,7.38
2022-11-03T06:53:29.353Z,7.40
2022-11-03T06:54:29.322Z,7.41
2022-11-03T06:55:29.288Z,7.43
2022-11-03T06:56:29.283Z,7.44
2022-11-03T06:57:29.327Z,7.45
2022-11-03T06:58:29.261Z,7.45
2022-11-03T06:59:29.231Z,7.45
2022-11-03T07:00:39.677Z,7.45
2022-11-03T07:01:29.361Z,7.45
2022-11-03T07:02:29.309Z,7.46
2022-11-03T07:03:29.185Z,7.47
2022-11-03T07:04:29.188Z,7.48
2022-11-03T07:05:29.161Z,7.49
2022-11-03T07:06:29.162Z,7.50
2022-11-03T07:07:29.142Z,7.51
2022-11-03T07:08:29.125Z,7.53
2022-11-03T07:09:29.121Z,7.54
2022-11-03T07:10:29.134Z,7.55
2022-11-03T07:11:29.096Z,7.56
2022-11-03T07:12:29.067Z,7.57
2022-11-03T07:13:29.095Z,7.59
2022-11-03T07:14:29.049Z,7.60
2022-11-03T07:15:29.044Z,7.62
2022-11-03T07:16:29.030Z,7.65
2022-11-03T07:17:29.005Z,7.67
2022-11-03T07:18:28.997Z,7.69
2022-11-03T07:19:28.997Z,7.70
2022-11-03T07:20:29.112Z,7.72
2022-11-03T07:21:28.970Z,7.73
2022-11-03T07:22:28.991Z,7.73
2022-11-03T07:23:28.932Z,7.74
2022-11-03T07:24:28.914Z,7.75
2022-11-03T07:25:28.957Z,7.76
2022-11-03T07:26:28.894Z,7.76
2022-11-03T07:27:28.890Z,7.77
2022-11-03T07:28:28.865Z,7.78
2022-11-03T07:29:28.853Z,7.79
2022-11-03T07:30:28.946Z,7.80
2022-11-03T07:31:28.818Z,7.81
2022-11-03T07:32:28.813Z,7.81
2022-11-03T07:33:28.811Z,7.82
2022-11-03T07:34:28.806Z,7.83
2022-11-03T07:35:41.678Z,7.84
2022-11-03T07:36:28.765Z,7.86
2022-11-03T07:37:28.749Z,7.88
2022-11-03T07:38:28.735Z,7.89
2022-11-03T07:39:28.753Z,7.91
2022-11-03T07:40:28.710Z,7.92
2022-11-03T07:41:32.812Z,7.94
2022-11-03T07:42:28.689Z,7.96
2022-11-03T07:43:28.671Z,7.98
2022-11-03T07:44:28.680Z,8.00
2022-11-03T07:45:28.730Z,8.01
2022-11-03T07:46:28.634Z,8.03
2022-11-03T07:47:28.622Z,8.05
2022-11-03T07:48:28.604Z,8.06
2022-11-03T07:49:28.606Z,8.07
2022-11-03T07:50:28.573Z,8.09
2022-11-03T07:51:28.577Z,8.11
2022-11-03T07:52:28.552Z,8.13
2022-11-03T07:53:28.534Z,8.15
2022-11-03T07:54:28.520Z,8.18
2022-11-03T07:55:28.517Z,8.20
2022-11-03T07:56:28.562Z,8.22
2022-11-03T07:57:28.492Z,8.24
2022-11-03T07:58:28.469Z,8.26
2022-11-03T07:59:28.469Z,8.28
2022-11-03T08:00:28.469Z,8.30
2022-11-03T08:01:28.502Z,8.32
2022-11-03T08:02:28.485Z,8.33
2022-11-03T08:03:28.437Z,8.35
2022-11-03T08:04:28.386Z,8.37
2022-11-03T08:05:28.398Z,8.39
2022-11-03T08:06:28.411Z,8.40
2022-11-03T08:07:28.375Z,8.42
2022-11-03T08:08:28.344Z,8.44
2022-11-03T08:09:28.337Z,8.45
2022-11-03T08:10:28.316Z,8.46
2022-11-03T08:11:29.663Z,8.48
2022-11-03T08:12:28.321Z,8.49
2022-11-03T08:13:28.293Z,8.50
2022-11-03T08:14:28.270Z,8.52
2022-11-03T08:15:28.269Z,8.53
2022-11-03T08:16:28.244Z,8.55
2022-11-03T08:17:28.251Z,8.57
2022-11-03T08:18:28.216Z,8.59
2022-11-03T08:19:28.205Z,8.60
2022-11-03T08:20:28.192Z,8.62
2022-11-03T08:21:28.181Z,8.64
2022-11-03T08:22:28.173Z,8.65
2022-11-03T08:23:28.539Z,8.66
2022-11-03T08:24:28.172Z,8.68
2022-11-03T08:25:28.159Z,8.69
2022-11-03T08:26:28.114Z,8.70
2022-11-03T08:27:28.105Z,8.72
2022-11-03T08:28:28.101Z,8.73
2022-11-03T08:29:28.087Z,8.75
2022-11-03T08:30:28.072Z,8.77
2022-11-03T08:31:28.080Z,8.79
2022-11-03T08:32:28.038Z,8.81
2022-11-03T08:34:28.032Z,8.84
2022-11-03T08:35:30.121Z,8.86
2022-11-03T08:36:27.995Z,8.87
2022-11-03T08:37:28.004Z,8.89
2022-11-03T08:38:27.981Z,8.91
2022-11-03T08:39:27.951Z,8.93
2022-11-03T08:40:27.938Z,8.94
2022-11-03T08:41:27.934Z,8.96
2022-11-03T08:42:27.919Z,8.98
2022-11-03T08:43:27.922Z,9.00
2022-11-03T08:44:27.922Z,9.03
2022-11-03T08:45:27.901Z,9.05
2022-11-03T08:46:27.889Z,9.06
2022-11-03T08:47:27.865Z,9.08
2022-11-03T08:48:27.851Z,9.09
2022-11-03T08:49:27.851Z,9.11
2022-11-03T08:50:27.824Z,9.12
2022-11-03T08:51:27.840Z,9.14
2022-11-03T08:52:27.815Z,9.16
2022-11-03T08:53:27.777Z,9.17
2022-11-03T08:54:27.765Z,9.19
2022-11-03T08:55:27.788Z,9.21
2022-11-03T08:56:27.758Z,9.23
2022-11-03T08:57:27.731Z,9.25
2022-11-03T08:58:27.743Z,9.26
2022-11-03T08:59:27.700Z,9.28
2022-11-03T09:00:27.707Z,9.29
2022-11-03T09:01:27.753Z,9.30
2022-11-03T09:02:27.716Z,9.31
2022-11-03T09:03:27.712Z,9.33
2022-11-03T09:04:27.639Z,9.34
2022-11-03T09:05:27.647Z,9.36
2022-11-03T09:06:27.621Z,9.37
2022-11-03T09:10:21.981Z,9.39
2022-11-03T09:10:32.441Z,9.41
2022-11-03T09:11:28.801Z,9.43
2022-11-03T09:12:28.779Z,9.45
2022-11-03T09:13:28.773Z,9.48
2022-11-03T09:14:28.781Z,9.51
2022-11-03T09:15:28.741Z,9.53
2022-11-03T09:16:28.725Z,9.55
2022-11-03T09:17:28.717Z,9.58
2022-11-03T09:18:28.703Z,9.60
2022-11-03T09:19:28.699Z,9.62
2022-11-03T09:20:28.682Z,9.64
2022-11-03T09:21:28.683Z,9.66
2022-11-03T09:22:28.653Z,9.68
2022-11-03T09:23:28.654Z,9.70
2022-11-03T09:24:28.639Z,9.72
2022-11-03T09:25:28.623Z,9.75
2022-11-03T09:26:28.612Z,9.77
2022-11-03T09:27:28.601Z,9.80
2022-11-03T09:28:28.598Z,9.82
2022-11-03T09:29:36.395Z,9.84
2022-11-03T09:30:28.566Z,9.87
2022-11-03T09:31:28.628Z,9.89
2022-11-03T09:32:28.539Z,9.92
2022-11-03T09:33:28.535Z,9.95
2022-11-03T09:34:28.519Z,9.97
2022-11-03T09:35:28.520Z,10.00
2022-11-03T09:36:28.491Z,10.03
2022-11-03T09:37:28.482Z,10.06
2022-11-03T09:38:28.466Z,10.09
2022-11-03T09:39:28.449Z,10.13
2022-11-03T09:40:28.443Z,10.16
2022-11-03T09:41:53.729Z,10.20
2022-11-03T09:42:28.413Z,10.24
2022-11-03T09:43:28.414Z,10.27
2022-11-03T09:44:28.380Z,10.30
2022-11-03T09:45:28.375Z,10.33
2022-11-03T09:46:28.374Z,10.36
2022-11-03T09:47:28.351Z,10.39
2022-11-03T09:48:28.342Z,10.42
2022-11-03T09:49:28.342Z,10.45
2022-11-03T09:50:28.307Z,10.47
2022-11-03T09:51:28.306Z,10.50
2022-11-03T09:52:28.310Z,10.52
2022-11-03T09:53:28.296Z,10.55
2022-11-03T09:54:28.272Z,10.57
2022-11-03T09:55:28.252Z,10.59
2022-11-03T09:56:28.301Z,10.61
2022-11-03T09:57:28.223Z,10.63
2022-11-03T09:58:28.216Z,10.65
2022-11-03T09:59:28.256Z,10.67
2022-11-03T10:00:28.198Z,10.69
2022-11-03T10:01:28.384Z,10.71
2022-11-03T10:02:28.247Z,10.73
2022-11-03T10:03:28.157Z,10.75
2022-11-03T10:04:28.130Z,10.77
2022-11-03T10:05:28.152Z,10.79
2022-11-03T10:06:28.110Z,10.81
2022-11-03T10:07:28.109Z,10.83
2022-11-03T10:08:28.093Z,10.84
2022-11-03T10:09:28.070Z,10.86
2022-11-03T10:10:28.082Z,10.87
2022-11-03T10:11:28.059Z,10.90
2022-11-03T10:12:28.034Z,10.93
2022-11-03T10:13:28.012Z,10.95
2022-11-03T10:14:28.014Z,10.98
2022-11-03T10:15:27.992Z,11.00
2022-11-03T10:16:27.988Z,11.01
2022-11-03T10:17:27.970Z,11.03
2022-11-03T10:18:27.973Z,11.05
2022-11-03T10:19:27.958Z,11.08
2022-11-03T10:20:27.915Z,11.10
2022-11-03T10:21:27.914Z,11.13
2022-11-03T10:22:27.959Z,11.16
2022-11-03T10:23:27.881Z,11.20
2022-11-03T10:24:27.866Z,11.23
2022-11-03T10:25:27.877Z,11.26
2022-11-03T10:26:27.851Z,11.30
2022-11-03T10:27:27.828Z,11.33
2022-11-03T10:28:27.815Z,11.35
2022-11-03T10:29:27.811Z,11.38
2022-11-03T10:30:29.783Z,11.40
2022-11-03T10:31:27.807Z,11.43
2022-11-03T10:32:27.765Z,11.45
2022-11-03T10:33:27.754Z,11.47
2022-11-03T10:34:27.747Z,11.50
2022-11-03T10:35:27.757Z,11.52
2022-11-03T10:36:27.712Z,11.55
2022-11-03T10:37:27.709Z,11.58
2022-11-03T10:38:27.685Z,11.60
2022-11-03T10:39:27.677Z,11.62
2022-11-03T10:40:47.500Z,11.63
2022-11-03T10:41:27.657Z,11.65
2022-11-03T10:42:32.073Z,11.65
2022-11-03T10:43:27.619Z,11.65
2022-11-03T10:44:27.694Z,11.65
2022-11-03T10:45:27.607Z,11.65
2022-11-03T10:47:27.570Z,11.64
2022-11-03T10:48:27.561Z,11.64
2022-11-03T10:49:27.540Z,11.64
2022-11-03T10:50:27.528Z,11.64
2022-11-03T10:51:27.507Z,11.64
2022-11-03T10:52:27.561Z,11.65
2022-11-03T10:53:27.489Z,11.65
2022-11-03T10:54:27.538Z,11.65
2022-11-03T10:55:27.513Z,11.66
2022-11-03T10:56:27.452Z,11.67
2022-11-03T10:57:27.440Z,11.68
2022-11-03T10:58:27.438Z,11.69
2022-11-03T10:59:27.425Z,11.70
2022-11-03T11:00:27.400Z,11.71
2022-11-03T11:01:27.588Z,11.72
2022-11-03T11:02:27.410Z,11.74
2022-11-03T11:03:27.356Z,11.76
2022-11-03T11:04:27.481Z,11.78
2022-11-03T11:05:27.336Z,11.81
2022-11-03T11:06:27.327Z,11.83
2022-11-03T11:07:27.335Z,11.86
2022-11-03T11:08:27.361Z,11.88
2022-11-03T11:09:27.278Z,11.91
2022-11-03T11:10:27.292Z,11.94
2022-11-03T11:11:27.286Z,11.97
2022-11-03T11:12:27.246Z,12.00
2022-11-03T11:13:27.258Z,12.02
2022-11-03T11:14:27.222Z,12.03
2022-11-03T11:15:27.201Z,12.05
2022-11-03T11:16:27.184Z,12.07
2022-11-03T11:17:27.209Z,12.09
2022-11-03T11:18:27.167Z,12.11
2022-11-03T11:19:27.149Z,12.13
2022-11-03T11:20:27.251Z,12.15
2022-11-03T11:21:28.104Z,12.18
2022-11-03T11:22:27.109Z,12.21
2022-11-03T11:23:27.127Z,12.23
2022-11-03T11:24:27.084Z,12.26
2022-11-03T11:25:27.095Z,12.29
2022-11-03T11:26:27.071Z,12.32
2022-11-03T11:27:27.040Z,12.35
2022-11-03T11:28:27.041Z,12.38
2022-11-03T11:29:27.030Z,12.40
2022-11-03T11:30:27.014Z,12.43
2022-11-03T11:31:26.988Z,12.45
2022-11-03T11:32:26.980Z,12.47
2022-11-03T11:33:26.962Z,12.50
2022-11-03T11:34:26.944Z,12.52
2022-11-03T11:35:26.964Z,12.54
2022-11-03T11:36:26.925Z,12.56
2022-11-03T11:37:26.943Z,12.58
2022-11-03T11:38:26.891Z,12.60
2022-11-03T11:39:26.880Z,12.63
2022-11-03T11:40:26.893Z,12.66
2022-11-03T11:41:26.884Z,12.69
2022-11-03T11:42:26.867Z,12.72
2022-11-03T11:43:26.849Z,12.76
2022-11-03T11:44:26.816Z,12.79
2022-11-03T11:45:26.825Z,12.83
2022-11-03T11:46:26.807Z,12.86
2022-11-03T11:47:26.793Z,12.89
2022-11-03T11:48:26.770Z,12.92
2022-11-03T11:49:26.758Z,12.94
2022-11-03T11:50:26.752Z,12.97
2022-11-03T11:51:26.736Z,12.99
2022-11-03T11:52:26.707Z,13.00
2022-11-03T11:53:31.720Z,13.01
2022-11-03T11:54:26.698Z,13.02
2022-11-03T11:55:26.670Z,13.03
2022-11-03T11:56:26.646Z,13.04
2022-11-03T11:57:26.652Z,13.05
2022-11-03T11:58:26.607Z,13.07
2022-11-03T11:59:26.616Z,13.09
2022-11-03T12:00:26.588Z,13.12
2022-11-03T12:01:26.673Z,13.15
2022-11-03T12:02:26.567Z,13.18
2022-11-03T12:03:26.593Z,13.21
2022-11-03T12:04:26.649Z,13.25
2022-11-03T12:05:26.561Z,13.28
2022-11-03T12:06:26.520Z,13.32
2022-11-03T12:07:26.519Z,13.36
2022-11-03T12:08:26.492Z,13.39
2022-11-03T12:09:26.485Z,13.43
2022-11-03T12:10:26.471Z,13.46
2022-11-03T12:11:26.497Z,13.49
2022-11-03T12:12:26.418Z,13.52
2022-11-03T12:13:26.410Z,13.54
2022-11-03T12:14:26.390Z,13.57
2022-11-03T12:15:26.383Z,13.60
2022-11-03T12:16:26.369Z,13.63
2022-11-03T12:17:26.351Z,13.66
2022-11-03T12:18:26.330Z,13.69
2022-11-03T12:19:26.319Z,13.72
2022-11-03T12:20:26.316Z,13.75
2022-11-03T12:21:26.297Z,13.78
2022-11-03T12:22:26.300Z,13.81
2022-11-03T12:23:26.266Z,13.84
2022-11-03T12:24:26.246Z,13.86
2022-11-03T12:25:26.247Z,13.88
2022-11-03T12:26:26.225Z,13.90
2022-11-03T12:27:26.212Z,13.91
2022-11-03T12:28:26.211Z,13.92
2022-11-03T12:29:26.209Z,13.94
2022-11-03T12:30:26.173Z,13.96
2022-11-03T12:31:26.154Z,13.98
2022-11-03T12:32:33.869Z,14.01
2022-11-03T12:33:26.147Z,14.04
2022-11-03T12:34:26.110Z,14.06
2022-11-03T12:35:26.102Z,14.07
2022-11-03T12:36:26.090Z,14.08
2022-11-03T12:37:26.086Z,14.08
2022-11-03T12:38:26.065Z,14.08
2022-11-03T12:39:26.047Z,14.09
2022-11-03T12:40:26.029Z,14.09
2022-11-03T12:41:26.026Z,14.10
2022-11-03T12:42:26.008Z,14.10
2022-11-03T12:43:26.001Z,14.09
2022-11-03T12:44:26.034Z,14.09
2022-11-03T12:45:25.981Z,14.09
2022-11-03T12:46:25.953Z,14.08
2022-11-03T12:47:25.956Z,14.08
2022-11-03T12:48:25.924Z,14.07
2022-11-03T12:49:25.915Z,14.07
2022-11-03T12:50:25.914Z,14.07
2022-11-03T12:51:25.891Z,14.06
2022-11-03T12:52:25.887Z,14.05
2022-11-03T12:53:25.860Z,14.04
2022-11-03T12:54:25.841Z,14.03
2022-11-03T12:55:25.834Z,14.02
2022-11-03T12:56:25.814Z,14.02
2022-11-03T12:57:25.816Z,14.02
2022-11-03T12:58:25.800Z,14.02
2022-11-03T12:59:25.781Z,14.02
2022-11-03T13:00:25.759Z,14.01
2022-11-03T13:01:25.928Z,14.00
2022-11-03T13:02:25.905Z,13.99
2022-11-03T13:03:25.730Z,13.99
2022-11-03T13:04:25.717Z,13.98
2022-11-03T13:05:25.726Z,13.97
2022-11-03T13:06:25.677Z,13.97
2022-11-03T13:07:30.316Z,13.96
2022-11-03T13:08:25.653Z,13.96
2022-11-03T13:09:25.682Z,13.95
2022-11-03T13:10:25.634Z,13.95
2022-11-03T13:11:25.615Z,13.94
2022-11-03T13:12:25.596Z,13.94
2022-11-03T13:13:25.589Z,13.94
2022-11-03T13:14:25.566Z,13.95
2022-11-03T13:15:25.561Z,13.96
2022-11-03T13:16:25.538Z,13.98